createdAt,value
2019-04-07T00:01:10.463Z,2.90
2019-04-07T00:03:37.295Z,4.53
2019-04-07T00:06:04.153Z,4.57
2019-04-07T00:08:31.241Z,3.50
2019-04-07T00:10:57.897Z,3.43
2019-04-07T00:13:24.180Z,2.97
2019-04-07T00:15:51.048Z,4.30
2019-04-07T00:18:17.951Z,3.80
2019-04-07T00:20:44.716Z,3.23
2019-04-07T00:23:11.099Z,4.37
2019-04-07T00:25:37.433Z,4.90
2019-04-07T00:28:04.100Z,2.80
2019-04-07T00:30:30.462Z,3.83
2019-04-07T00:32:56.786Z,2.70
2019-04-07T00:35:30.463Z,2.37
2019-04-07T00:37:51.750Z,2.70
2019-04-07T00:40:18.565Z,3.20
2019-04-07T00:42:45.525Z,3.60
2019-04-07T00:45:11.821Z,3.77
2019-04-07T00:47:38.863Z,3.00
2019-04-07T00:50:05.396Z,3.23
2019-04-07T00:52:31.554Z,3.23
2019-04-07T00:54:57.814Z,4.43
2019-04-07T00:57:25.411Z,3.63
2019-04-07T00:59:51.608Z,4.10
2019-04-07T01:02:17.971Z,2.87
2019-04-07T01:04:44.620Z,3.33
2019-04-07T01:07:11.403Z,3.17
2019-04-07T01:09:37.860Z,3.70
2019-04-07T01:12:04.148Z,2.07
2019-04-07T01:14:30.502Z,2.87
2019-04-07T01:16:57.150Z,3.40
2019-04-07T01:19:24.320Z,3.13
2019-04-07T01:21:51.156Z,2.83
2019-04-07T01:24:17.675Z,2.57
2019-04-07T01:26:43.910Z,2.70
2019-04-07T01:29:10.265Z,3.10
2019-04-07T01:31:36.558Z,2.97
2019-04-07T01:34:03.138Z,3.10
2019-04-07T01:36:29.505Z,3.43
2019-04-07T01:38:55.761Z,1.80
2019-04-07T01:41:27.544Z,2.93
2019-04-07T01:44:16.163Z,3.57
2019-04-07T01:47:04.901Z,2.37
2019-04-07T01:50:03.094Z,2.30
2019-04-07T01:52:54.871Z,3.07
2019-04-07T01:55:29.939Z,3.33
2019-04-07T01:58:16.361Z,3.47
2019-04-07T02:01:05.425Z,3.53
2019-04-07T02:03:46.290Z,1.87
2019-04-07T02:06:37.975Z,2.73
2019-04-07T02:09:31.434Z,1.57
2019-04-07T02:12:18.108Z,3.53
2019-04-07T02:15:10.559Z,1.93
2019-04-07T02:17:43.926Z,2.07
2019-04-07T02:20:38.956Z,2.87
2019-04-07T02:23:31.709Z,1.87
2019-04-07T02:26:04.045Z,3.60
2019-04-07T02:28:46.236Z,2.87
2019-04-07T02:31:50.285Z,3.40
2019-04-07T02:34:36.331Z,3.40
2019-04-07T02:37:29.649Z,1.63
2019-04-07T02:40:28.451Z,2.00
2019-04-07T02:43:16.610Z,2.77
2019-04-07T02:45:53.616Z,2.33
2019-04-07T02:48:39.596Z,2.60
2019-04-07T02:51:31.949Z,2.17
2019-04-07T02:54:36.555Z,2.10
2019-04-07T02:57:20.765Z,1.63
2019-04-07T03:00:09.289Z,2.67
2019-04-07T03:02:50.575Z,2.27
2019-04-07T03:05:26.663Z,4.37
2019-04-07T03:08:02.240Z,2.27
2019-04-07T03:10:40.514Z,2.70
2019-04-07T03:13:17.385Z,3.07
2019-04-07T03:16:02.152Z,1.87
2019-04-07T03:18:40.140Z,2.33
2019-04-07T03:21:13.752Z,1.90
2019-04-07T03:23:47.677Z,4.60
2019-04-07T03:26:32.561Z,2.43
2019-04-07T03:29:24.073Z,3.60
2019-04-07T03:31:59.983Z,3.07
2019-04-07T03:34:36.518Z,1.93
2019-04-07T03:37:36.341Z,3.30
2019-04-07T03:40:08.879Z,2.57
2019-04-07T03:42:45.737Z,2.70
2019-04-07T03:45:37.916Z,2.47
2019-04-07T03:48:13.660Z,1.77
2019-04-07T03:50:49.158Z,3.07
2019-04-07T03:53:37.850Z,2.87
2019-04-07T03:56:20.171Z,2.67
2019-04-07T03:59:03.298Z,3.63
2019-04-07T04:01:55.245Z,2.40
2019-04-07T04:04:49.024Z,4.93
2019-04-07T04:07:28.367Z,4.13
2019-04-07T04:10:06.549Z,2.90
2019-04-07T04:12:49.917Z,2.60
2019-04-07T04:15:22.819Z,3.77
2019-04-07T04:17:49.685Z,2.43
2019-04-07T04:20:16.149Z,2.70
2019-04-07T04:22:43.158Z,4.03
2019-04-07T04:25:10.544Z,2.87
2019-04-07T04:27:37.138Z,3.10
2019-04-07T04:30:05.073Z,3.47
2019-04-07T04:32:31.446Z,2.53
2019-04-07T04:34:57.752Z,2.53
2019-04-07T04:37:36.045Z,2.90
2019-04-07T04:39:52.948Z,2.80
2019-04-07T04:42:20.332Z,4.47
2019-04-07T04:44:47.673Z,1.87
2019-04-07T04:47:14.274Z,3.70
2019-04-07T04:49:41.573Z,2.17
2019-04-07T04:52:07.904Z,2.37
2019-04-07T04:54:34.191Z,4.57
2019-04-07T04:57:04.756Z,2.33
2019-04-07T04:59:29.769Z,2.73
2019-04-07T05:01:56.471Z,3.10
2019-04-07T05:04:23.052Z,2.70
2019-04-07T05:06:49.578Z,3.70
2019-04-07T05:09:16.008Z,2.63
2019-04-07T05:11:42.895Z,3.67
2019-04-07T05:14:09.410Z,3.67
2019-04-07T05:16:35.708Z,3.93
2019-04-07T05:19:02.706Z,4.83
2019-04-07T05:21:29.127Z,3.20
2019-04-07T05:23:56.066Z,3.80
2019-04-07T05:26:22.442Z,4.23
2019-04-07T05:28:49.199Z,2.70
2019-04-07T05:31:15.490Z,3.07
2019-04-07T05:33:42.040Z,3.43
2019-04-07T05:36:08.865Z,4.37
2019-04-07T05:38:35.689Z,4.87
2019-04-07T05:41:02.928Z,2.83
2019-04-07T05:43:29.262Z,5.13
2019-04-07T05:45:55.567Z,5.87
2019-04-07T05:48:21.902Z,3.90
2019-04-07T05:50:48.849Z,3.37
2019-04-07T05:53:15.856Z,3.80
2019-04-07T05:55:42.621Z,4.83
2019-04-07T05:58:09.327Z,4.07
2019-04-07T06:00:36.189Z,3.80
2019-04-07T06:03:06.645Z,4.47
2019-04-07T06:05:30.922Z,5.27
2019-04-07T06:08:02.688Z,4.53
2019-04-07T06:10:28.687Z,7.57
2019-04-07T06:12:54.115Z,3.50
2019-04-07T06:15:22.139Z,4.07
2019-04-07T06:17:49.075Z,3.97
2019-04-07T06:20:17.540Z,3.60
2019-04-07T06:22:46.506Z,4.07
2019-04-07T06:25:11.922Z,5.60
2019-04-07T06:27:38.393Z,6.80
2019-04-07T06:30:06.259Z,4.20
2019-04-07T06:32:35.168Z,4.27
2019-04-07T06:35:01.742Z,4.20
2019-04-07T06:37:29.459Z,3.47
2019-04-07T06:39:55.867Z,6.67
2019-04-07T06:42:22.104Z,4.40
2019-04-07T06:44:50.572Z,3.97
2019-04-07T06:47:20.463Z,3.60
2019-04-07T06:50:14.206Z,6.93
2019-04-07T06:52:58.918Z,4.40
2019-04-07T06:55:44.025Z,3.83
2019-04-07T06:58:31.039Z,5.17
2019-04-07T07:01:18.175Z,5.13
2019-04-07T07:04:03.106Z,3.90
2019-04-07T07:07:06.182Z,4.33
2019-04-07T07:09:43.118Z,4.40
2019-04-07T07:12:34.995Z,5.53
2019-04-07T07:15:18.423Z,4.20
2019-04-07T07:17:57.153Z,4.00
2019-04-07T07:20:53.859Z,4.83
2019-04-07T07:23:26.377Z,5.47
2019-04-07T07:25:53.055Z,3.63
2019-04-07T07:28:19.516Z,3.30
2019-04-07T07:30:50.460Z,5.83
2019-04-07T07:33:14.802Z,3.10
2019-04-07T07:35:43.920Z,4.83
2019-04-07T07:38:10.025Z,5.23
2019-04-07T07:40:37.406Z,5.73
2019-04-07T07:43:04.424Z,2.43
2019-04-07T07:45:30.935Z,3.43
2019-04-07T07:47:57.699Z,5.27
2019-04-07T07:50:24.533Z,3.07
2019-04-07T07:52:53.354Z,3.97
2019-04-07T07:55:19.728Z,3.77
2019-04-07T07:57:46.977Z,3.37
2019-04-07T08:00:13.647Z,3.63
2019-04-07T08:02:40.170Z,3.93
2019-04-07T08:05:07.149Z,3.77
2019-04-07T08:07:33.718Z,4.13
2019-04-07T08:10:00.690Z,3.27
2019-04-07T08:12:28.138Z,3.33
2019-04-07T08:14:57.191Z,3.20
2019-04-07T08:17:23.824Z,1.90
2019-04-07T08:19:50.361Z,1.87
2019-04-07T08:22:27.504Z,3.30
2019-04-07T08:24:47.618Z,2.63
2019-04-07T08:27:13.945Z,2.53
2019-04-07T08:29:41.142Z,1.90
2019-04-07T08:32:07.719Z,2.63
2019-04-07T08:34:34.856Z,3.47
2019-04-07T08:37:01.318Z,1.33
2019-04-07T08:39:32.333Z,1.70
2019-04-07T08:41:56.073Z,1.90
2019-04-07T08:44:26.021Z,3.40
2019-04-07T08:46:50.903Z,1.30
2019-04-07T08:49:18.047Z,2.50
2019-04-07T08:51:44.893Z,1.87
2019-04-07T08:54:13.816Z,1.40
2019-04-07T08:56:39.497Z,2.10
2019-04-07T08:59:07.872Z,1.37
2019-04-07T09:01:33.965Z,1.17
2019-04-07T09:04:00.229Z,1.27
2019-04-07T09:06:29.296Z,2.00
2019-04-07T09:08:56.423Z,1.30
2019-04-07T09:11:23.673Z,1.73
2019-04-07T09:13:53.697Z,2.37
2019-04-07T09:16:48.061Z,2.63
2019-04-07T09:19:39.727Z,4.10
2019-04-07T09:22:25.778Z,1.90
2019-04-07T09:25:09.472Z,2.67
2019-04-07T09:27:46.089Z,3.53
2019-04-07T09:30:23.537Z,1.83
2019-04-07T09:33:02.222Z,2.97
2019-04-07T09:35:47.588Z,2.23
2019-04-07T09:38:31.997Z,2.47
2019-04-07T09:41:07.504Z,4.80
2019-04-07T09:43:44.107Z,3.33
2019-04-07T09:46:16.267Z,1.60
2019-04-07T09:48:52.819Z,3.27
2019-04-07T09:51:28.562Z,1.90
2019-04-07T09:54:15.003Z,2.10
2019-04-07T09:57:03.417Z,1.87
2019-04-07T09:59:37.495Z,1.93
2019-04-07T10:02:22.788Z,2.57
2019-04-07T10:04:59.378Z,3.43
2019-04-07T10:07:48.848Z,3.27
2019-04-07T10:10:40.438Z,2.73
2019-04-07T10:13:38.729Z,1.77
2019-04-07T10:16:14.919Z,1.60
2019-04-07T10:18:57.635Z,2.60
2019-04-07T10:21:36.126Z,1.50
2019-04-07T10:24:14.168Z,1.37
2019-04-07T10:26:53.676Z,2.00
2019-04-07T10:29:28.313Z,2.37
2019-04-07T10:32:04.595Z,2.70
2019-04-07T10:34:54.311Z,2.00
2019-04-07T10:37:36.599Z,2.40
2019-04-07T10:40:20.340Z,4.73
2019-04-07T10:42:58.369Z,2.50
2019-04-07T10:45:35.878Z,2.20
2019-04-07T10:48:24.377Z,2.17
2019-04-07T10:51:25.300Z,3.10
2019-04-07T10:54:08.153Z,2.30
2019-04-07T10:57:03.329Z,3.33
2019-04-07T11:00:01.467Z,3.27
2019-04-07T11:02:53.893Z,3.20
2019-04-07T11:05:42.729Z,2.87
2019-04-07T11:08:18.217Z,2.77
2019-04-07T11:11:03.434Z,3.60
2019-04-07T11:13:55.454Z,5.43
2019-04-07T11:16:45.210Z,5.37
2019-04-07T11:19:32.191Z,4.90
2019-04-07T11:22:16.788Z,3.17
2019-04-07T11:24:59.002Z,4.00
2019-04-07T11:27:45.282Z,2.60
2019-04-07T11:30:35.436Z,3.63
2019-04-07T11:33:20.940Z,5.40
2019-04-07T11:36:07.074Z,2.30
2019-04-07T11:38:54.906Z,3.10
2019-04-07T11:41:37.805Z,4.13
2019-04-07T11:44:24.714Z,3.13
2019-04-07T11:47:14.227Z,2.20
2019-04-07T11:49:57.192Z,4.50
2019-04-07T11:52:32.114Z,2.33
2019-04-07T11:55:17.375Z,2.50
2019-04-07T11:58:09.703Z,2.93
2019-04-07T12:00:44.037Z,2.57
2019-04-07T12:03:39.821Z,4.50
2019-04-07T12:06:26.850Z,2.50
2019-04-07T12:09:05.302Z,3.37
2019-04-07T12:11:41.868Z,2.93
2019-04-07T12:14:45.536Z,2.30
2019-04-07T12:17:23.429Z,2.60
2019-04-07T12:20:05.330Z,2.80
2019-04-07T12:22:42.597Z,2.83
2019-04-07T12:25:34.667Z,3.67
2019-04-07T12:28:17.865Z,4.43
2019-04-07T12:30:51.254Z,2.77
2019-04-07T12:33:32.878Z,5.17
2019-04-07T12:36:23.573Z,3.90
2019-04-07T12:39:17.353Z,3.13
2019-04-07T12:42:08.335Z,2.30
2019-04-07T12:45:03.706Z,4.50
2019-04-07T12:47:41.135Z,4.10
2019-04-07T12:50:32.833Z,2.87
2019-04-07T12:53:25.079Z,3.10
2019-04-07T12:56:09.694Z,5.30
2019-04-07T13:01:47.092Z,3.20
2019-04-07T13:04:20.999Z,3.63
2019-04-07T13:07:15.274Z,2.70
2019-04-07T13:10:04.163Z,2.73
2019-04-07T13:12:49.716Z,3.23
2019-04-07T13:15:35.105Z,3.30
2019-04-07T13:18:12.149Z,3.13
2019-04-07T13:20:59.031Z,2.70
2019-04-07T13:23:41.680Z,2.57
2019-04-07T13:26:32.384Z,2.93
2019-04-07T13:29:40.688Z,2.43
2019-04-07T13:32:20.703Z,2.87
2019-04-07T13:34:56.653Z,2.33
2019-04-07T13:37:45.671Z,2.97
2019-04-07T13:40:36.110Z,2.63
2019-04-07T13:43:16.520Z,2.87
2019-04-07T13:45:59.296Z,2.10
2019-04-07T13:48:51.615Z,1.73
2019-04-07T13:51:34.537Z,2.67
2019-04-07T13:54:23.244Z,2.57
2019-04-07T13:57:08.100Z,2.47
2019-04-07T14:00:04.087Z,3.83
2019-04-07T14:02:40.007Z,2.00
2019-04-07T14:05:14.950Z,2.30
2019-04-07T14:07:54.427Z,3.87
2019-04-07T14:10:38.330Z,3.10
2019-04-07T14:13:23.562Z,2.43
2019-04-07T14:16:09.497Z,3.67
2019-04-07T14:19:02.536Z,2.10
2019-04-07T14:21:51.986Z,2.57
2019-04-07T14:24:33.517Z,2.80
2019-04-07T14:27:23.772Z,2.60
2019-04-07T14:29:59.114Z,3.07
2019-04-07T14:32:50.569Z,2.73
2019-04-07T14:35:35.769Z,2.23
2019-04-07T14:38:17.930Z,3.43
2019-04-07T14:41:01.137Z,2.20
2019-04-07T14:44:06.972Z,2.73
2019-04-07T14:47:00.045Z,3.37
2019-04-07T14:49:38.666Z,2.40
2019-04-07T14:52:17.688Z,2.17
2019-04-07T14:54:59.861Z,2.57
2019-04-07T14:57:45.838Z,2.70
2019-04-07T15:00:32.668Z,3.77
2019-04-07T15:02:59.372Z,5.13
2019-04-07T15:05:29.892Z,3.00
2019-04-07T15:08:06.471Z,3.90
2019-04-07T15:10:39.770Z,3.43
2019-04-07T15:13:10.730Z,3.73
2019-04-07T15:15:37.484Z,4.23
2019-04-07T15:18:05.092Z,3.10
2019-04-07T15:20:32.302Z,2.87
2019-04-07T15:23:00.254Z,2.87
2019-04-07T15:25:28.824Z,5.17
2019-04-07T15:27:58.923Z,3.57
2019-04-07T15:30:25.378Z,3.27
2019-04-07T15:32:57.869Z,5.27
2019-04-07T15:35:24.399Z,6.80
2019-04-07T15:37:52.493Z,2.97
2019-04-07T15:40:19.299Z,6.77
2019-04-07T15:42:50.007Z,3.37
2019-04-07T15:45:15.087Z,5.67
2019-04-07T15:47:42.476Z,2.27
2019-04-07T15:50:09.662Z,4.40
2019-04-07T15:52:36.998Z,3.13
2019-04-07T15:55:05.169Z,16.93
2019-04-07T15:57:32.439Z,3.50
2019-04-07T16:00:01.693Z,3.70
2019-04-07T16:02:28.923Z,3.47
2019-04-07T16:04:59.241Z,2.97
2019-04-07T16:07:24.705Z,3.03
2019-04-07T16:09:56.316Z,4.03
2019-04-07T16:12:19.819Z,3.33
2019-04-07T16:14:47.078Z,3.30
2019-04-07T16:17:13.936Z,5.53
2019-04-07T16:19:43.875Z,3.53
2019-04-07T16:22:12.590Z,4.23
2019-04-07T16:24:37.864Z,3.13
2019-04-07T16:27:06.724Z,4.17
2019-04-07T16:29:33.305Z,3.53
2019-04-07T16:32:00.140Z,4.97
2019-04-07T16:34:26.837Z,2.87
2019-04-07T16:36:57.245Z,4.57
2019-04-07T16:39:23.031Z,2.83
2019-04-07T16:41:50.192Z,3.43
2019-04-07T16:44:17.039Z,3.50
2019-04-07T16:46:43.770Z,3.70
2019-04-07T16:49:13.222Z,4.20
2019-04-07T16:51:39.215Z,3.90
2019-04-07T16:54:08.728Z,4.97
2019-04-07T16:56:34.994Z,6.23
2019-04-07T16:59:02.656Z,5.60
2019-04-07T17:01:31.419Z,4.13
2019-04-07T17:03:59.284Z,4.10
2019-04-07T17:06:29.814Z,4.70
2019-04-07T17:08:55.057Z,5.97
2019-04-07T17:11:22.534Z,5.33
2019-04-07T17:13:50.021Z,6.27
2019-04-07T17:16:22.205Z,5.90
2019-04-07T17:18:47.907Z,4.33
2019-04-07T17:21:15.801Z,5.40
2019-04-07T17:23:42.930Z,8.13
2019-04-07T17:26:09.832Z,7.83
2019-04-07T17:28:36.629Z,7.07
2019-04-07T17:31:04.606Z,6.70
2019-04-07T17:33:35.163Z,8.37
2019-04-07T17:36:02.495Z,7.47
2019-04-07T17:38:35.003Z,6.13
2019-04-07T17:41:01.884Z,8.00
2019-04-07T17:44:06.550Z,7.47
2019-04-07T17:46:47.160Z,7.00
2019-04-07T17:49:26.292Z,5.83
2019-04-07T17:52:18.606Z,6.70
2019-04-07T17:54:54.332Z,5.73
2019-04-07T17:57:27.159Z,7.77
2019-04-07T18:00:16.496Z,7.20
2019-04-07T18:03:19.998Z,8.03
2019-04-07T18:06:04.154Z,9.93
2019-04-07T18:09:09.206Z,9.57
2019-04-07T18:11:47.399Z,7.63
2019-04-07T18:14:33.033Z,7.70
2019-04-07T18:17:11.924Z,8.57
2019-04-07T18:19:59.487Z,7.60
2019-04-07T18:22:45.075Z,7.67
2019-04-07T18:25:45.891Z,9.57
2019-04-07T18:28:30.202Z,8.17
2019-04-07T18:31:08.452Z,7.80
2019-04-07T18:34:13.157Z,8.37
2019-04-07T18:36:59.956Z,6.90
2019-04-07T18:39:51.630Z,8.40
2019-04-07T18:42:36.117Z,8.53
2019-04-07T18:45:15.785Z,6.70
2019-04-07T18:47:57.898Z,9.03
2019-04-07T18:50:48.006Z,8.63
2019-04-07T18:53:33.364Z,7.60
2019-04-07T18:56:10.505Z,8.50
2019-04-07T18:59:07.454Z,8.53
2019-04-07T19:01:53.815Z,7.83
2019-04-07T19:04:58.188Z,9.40
2019-04-07T19:07:45.881Z,9.80
2019-04-07T19:10:28.024Z,10.33
2019-04-07T19:13:18.545Z,8.20
2019-04-07T19:15:55.389Z,8.87
2019-04-07T19:18:32.564Z,10.67
2019-04-07T19:21:12.238Z,9.17
2019-04-07T19:23:59.051Z,6.93
2019-04-07T19:26:43.203Z,8.90
2019-04-07T19:29:28.355Z,9.93
2019-04-07T19:32:13.507Z,8.00
2019-04-07T19:34:53.055Z,7.77
2019-04-07T19:37:26.778Z,6.97
2019-04-07T19:40:30.216Z,7.00
2019-04-07T19:43:06.508Z,10.30
2019-04-07T19:45:45.554Z,8.97
2019-04-07T19:48:42.763Z,8.73
2019-04-07T19:51:38.310Z,8.13
2019-04-07T19:54:31.371Z,10.33
2019-04-07T19:57:09.185Z,10.03
2019-04-07T19:59:52.747Z,9.40
2019-04-07T20:02:40.433Z,8.33
2019-04-07T20:05:25.445Z,8.97
2019-04-07T20:08:20.212Z,8.80
2019-04-07T20:10:54.621Z,14.27
2019-04-07T20:13:50.911Z,8.87
2019-04-07T20:16:38.184Z,10.93
2019-04-07T20:19:36.184Z,11.50
2019-04-07T20:22:28.162Z,11.37
2019-04-07T20:25:15.971Z,11.30
2019-04-07T20:27:51.234Z,11.30
2019-04-07T20:30:36.325Z,14.17
2019-04-07T20:33:29.843Z,11.17
2019-04-07T20:36:32.259Z,12.67
2019-04-07T20:39:21.861Z,8.40
2019-04-07T20:41:56.885Z,10.57
2019-04-07T20:44:43.248Z,9.03
2019-04-07T20:47:29.762Z,10.33
2019-04-07T20:50:23.824Z,10.70
2019-04-07T20:53:17.345Z,9.73
2019-04-07T20:56:00.373Z,11.00
2019-04-07T20:58:54.972Z,9.37
2019-04-07T21:01:33.881Z,11.00
2019-04-07T21:04:21.666Z,9.20
2019-04-07T21:07:28.918Z,11.07
2019-04-07T21:10:05.229Z,11.97
2019-04-07T21:12:52.774Z,12.60
2019-04-07T21:15:35.825Z,9.73
2019-04-07T21:18:32.612Z,11.00
2019-04-07T21:21:12.192Z,9.17
2019-04-07T21:23:48.020Z,10.33
2019-04-07T21:26:32.302Z,11.93
2019-04-07T21:29:25.897Z,10.53
2019-04-07T21:32:09.925Z,10.87
2019-04-07T21:34:58.275Z,12.50
2019-04-07T21:37:33.803Z,10.53
2019-04-07T21:40:14.345Z,10.20
2019-04-07T21:43:13.469Z,12.10
2019-04-07T21:46:02.765Z,9.23
2019-04-07T21:48:41.243Z,9.97
2019-04-07T21:51:18.083Z,12.70
2019-04-07T21:54:04.518Z,12.53
2019-04-07T21:56:53.962Z,11.37
2019-04-07T21:59:39.524Z,15.33
2019-04-07T22:02:15.354Z,10.47
2019-04-07T22:04:55.699Z,10.83
2019-04-07T22:07:33.576Z,11.20
2019-04-07T22:10:03.193Z,12.07
2019-04-07T22:12:31.955Z,10.10
2019-04-07T22:14:59.111Z,11.40
2019-04-07T22:17:25.827Z,10.73
2019-04-07T22:19:53.142Z,11.43
2019-04-07T22:22:19.754Z,10.27
2019-04-07T22:24:46.543Z,12.40
2019-04-07T22:27:13.540Z,9.33
2019-04-07T22:29:40.372Z,12.20
2019-04-07T22:32:07.462Z,11.87
2019-04-07T22:34:34.358Z,11.80
2019-04-07T22:37:00.909Z,12.03
2019-04-07T22:39:28.904Z,11.40
2019-04-07T22:41:57.117Z,10.57
2019-04-07T22:44:24.728Z,9.80
2019-04-07T22:46:52.324Z,9.40
2019-04-07T22:49:19.813Z,9.87
2019-04-07T22:51:48.313Z,8.33
2019-04-07T22:54:15.305Z,9.50
2019-04-07T22:56:42.506Z,9.80
2019-04-07T22:59:11.252Z,10.87
2019-04-07T23:01:37.742Z,10.43
2019-04-07T23:04:04.421Z,9.73
2019-04-07T23:06:31.179Z,9.47
2019-04-07T23:08:57.917Z,8.00
2019-04-07T23:11:24.669Z,10.80
2019-04-07T23:13:51.380Z,11.13
2019-04-07T23:16:18.989Z,9.63
2019-04-07T23:18:46.687Z,9.77
2019-04-07T23:21:13.385Z,10.90
2019-04-07T23:23:40.065Z,10.57
2019-04-07T23:26:07.512Z,9.43
2019-04-07T23:28:34.763Z,10.43
2019-04-07T23:31:01.461Z,9.80
2019-04-07T23:33:28.054Z,10.30
2019-04-07T23:35:55.448Z,10.83
2019-04-07T23:38:22.120Z,9.03
2019-04-07T23:40:49.394Z,9.87
2019-04-07T23:43:17.348Z,9.87
2019-04-07T23:45:44.232Z,10.70
2019-04-07T23:48:10.881Z,10.40
2019-04-07T23:50:37.684Z,10.13
2019-04-07T23:53:41.164Z,8.63
2019-04-07T23:56:07.956Z,9.70
2019-04-07T23:58:34.592Z,11.90
